sensor_id;sensor_type;location;lat;lon;timestamp;P1;durP1;ratioP1;P2;durP2;ratioP2
25567;SDS011;13455;51.480;7.594;2022-07-30T00:02:20;9.77;;;4.50;;
25567;SDS011;13455;51.480;7.594;2022-07-30T00:04:46;9.82;;;4.50;;
25567;SDS011;13455;51.480;7.594;2022-07-30T00:07:12;8.35;;;4.60;;
25567;SDS011;13455;51.480;7.594;2022-07-30T00:09:38;9.20;;;4.68;;
25567;SDS011;13455;51.480;7.594;2022-07-30T00:12:05;11.88;;;4.70;;
25567;SDS011;13455;51.480;7.594;2022-07-30T00:14:31;8.50;;;4.40;;
25567;SDS011;13455;51.480;7.594;2022-07-30T00:16:58;9.43;;;4.63;;
25567;SDS011;13455;51.480;7.594;2022-07-30T00:19:24;10.60;;;4.60;;
25567;SDS011;13455;51.480;7.594;2022-07-30T00:21:51;10.50;;;4.80;;
25567;SDS011;13455;51.480;7.594;2022-07-30T00:24:18;7.95;;;4.65;;
25567;SDS011;13455;51.480;7.594;2022-07-30T00:26:44;10.13;;;5.03;;
25567;SDS011;13455;51.480;7.594;2022-07-30T00:29:10;8.20;;;4.70;;
25567;SDS011;13455;51.480;7.594;2022-07-30T00:31:36;9.93;;;4.60;;
25567;SDS011;13455;51.480;7.594;2022-07-30T00:34:02;8.98;;;4.90;;
25567;SDS011;13455;51.480;7.594;2022-07-30T00:36:28;9.85;;;5.18;;
25567;SDS011;13455;51.480;7.594;2022-07-30T00:38:54;9.75;;;5.40;;
25567;SDS011;13455;51.480;7.594;2022-07-30T00:41:20;11.02;;;5.10;;
25567;SDS011;13455;51.480;7.594;2022-07-30T00:43:46;9.70;;;5.22;;
25567;SDS011;13455;51.480;7.594;2022-07-30T00:46:12;8.50;;;5.07;;
25567;SDS011;13455;51.480;7.594;2022-07-30T00:48:41;10.73;;;5.60;;
25567;SDS011;13455;51.480;7.594;2022-07-30T00:51:07;11.32;;;5.57;;
25567;SDS011;13455;51.480;7.594;2022-07-30T00:53:33;9.33;;;5.70;;
25567;SDS011;13455;51.480;7.594;2022-07-30T00:56:00;9.80;;;5.40;;
25567;SDS011;13455;51.480;7.594;2022-07-30T00:58:26;10.68;;;5.50;;
25567;SDS011;13455;51.480;7.594;2022-07-30T01:00:52;10.97;;;5.40;;
25567;SDS011;13455;51.480;7.594;2022-07-30T01:03:18;9.70;;;5.85;;
25567;SDS011;13455;51.480;7.594;2022-07-30T01:05:44;11.88;;;5.72;;
25567;SDS011;13455;51.480;7.594;2022-07-30T01:08:10;11.10;;;5.70;;
25567;SDS011;13455;51.480;7.594;2022-07-30T01:10:36;10.27;;;5.60;;
25567;SDS011;13455;51.480;7.594;2022-07-30T01:13:02;10.57;;;6.13;;
25567;SDS011;13455;51.480;7.594;2022-07-30T01:15:28;13.07;;;5.87;;
25567;SDS011;13455;51.480;7.594;2022-07-30T01:17:58;11.38;;;6.03;;
25567;SDS011;13455;51.480;7.594;2022-07-30T01:20:48;11.50;;;5.60;;
25567;SDS011;13455;51.480;7.594;2022-07-30T01:23:24;8.37;;;5.70;;
25567;SDS011;13455;51.480;7.594;2022-07-30T01:25:57;10.63;;;5.97;;
25567;SDS011;13455;51.480;7.594;2022-07-30T01:28:36;9.35;;;5.60;;
25567;SDS011;13455;51.480;7.594;2022-07-30T01:31:03;10.07;;;5.75;;
25567;SDS011;13455;51.480;7.594;2022-07-30T01:33:30;13.48;;;6.38;;
25567;SDS011;13455;51.480;7.594;2022-07-30T01:35:58;10.18;;;5.90;;
25567;SDS011;13455;51.480;7.594;2022-07-30T01:38:24;10.80;;;6.50;;
25567;SDS011;13455;51.480;7.594;2022-07-30T01:40:52;11.07;;;6.30;;
25567;SDS011;13455;51.480;7.594;2022-07-30T01:43:20;11.77;;;6.50;;
25567;SDS011;13455;51.480;7.594;2022-07-30T01:45:47;12.27;;;6.65;;
25567;SDS011;13455;51.480;7.594;2022-07-30T01:48:16;11.50;;;6.40;;
25567;SDS011;13455;51.480;7.594;2022-07-30T01:50:44;10.30;;;6.30;;
25567;SDS011;13455;51.480;7.594;2022-07-30T01:53:13;12.10;;;6.40;;
25567;SDS011;13455;51.480;7.594;2022-07-30T01:55:40;9.10;;;6.27;;
25567;SDS011;13455;51.480;7.594;2022-07-30T01:58:07;12.25;;;6.25;;
25567;SDS011;13455;51.480;7.594;2022-07-30T02:00:38;10.43;;;6.55;;
25567;SDS011;13455;51.480;7.594;2022-07-30T02:03:06;11.38;;;6.63;;
25567;SDS011;13455;51.480;7.594;2022-07-30T02:05:34;11.27;;;6.57;;
25567;SDS011;13455;51.480;7.594;2022-07-30T02:08:11;11.82;;;6.80;;
25567;SDS011;13455;51.480;7.594;2022-07-30T02:13:05;12.32;;;7.05;;
25567;SDS011;13455;51.480;7.594;2022-07-30T02:15:48;12.52;;;6.60;;
25567;SDS011;13455;51.480;7.594;2022-07-30T02:18:19;10.40;;;6.70;;
25567;SDS011;13455;51.480;7.594;2022-07-30T02:20:47;9.80;;;6.40;;
25567;SDS011;13455;51.480;7.594;2022-07-30T02:23:14;8.77;;;6.32;;
25567;SDS011;13455;51.480;7.594;2022-07-30T02:25:43;9.45;;;6.00;;
25567;SDS011;13455;51.480;7.594;2022-07-30T02:28:10;12.30;;;6.63;;
25567;SDS011;13455;51.480;7.594;2022-07-30T02:30:39;9.30;;;6.10;;
25567;SDS011;13455;51.480;7.594;2022-07-30T02:33:09;11.25;;;6.78;;
25567;SDS011;13455;51.480;7.594;2022-07-30T02:35:37;11.23;;;6.87;;
25567;SDS011;13455;51.480;7.594;2022-07-30T02:38:03;12.90;;;7.05;;
25567;SDS011;13455;51.480;7.594;2022-07-30T02:40:30;14.30;;;7.63;;
25567;SDS011;13455;51.480;7.594;2022-07-30T02:42:56;12.43;;;7.85;;
25567;SDS011;13455;51.480;7.594;2022-07-30T02:45:23;11.75;;;7.57;;
25567;SDS011;13455;51.480;7.594;2022-07-30T02:48:03;12.93;;;7.45;;
25567;SDS011;13455;51.480;7.594;2022-07-30T02:50:33;11.38;;;7.55;;
25567;SDS011;13455;51.480;7.594;2022-07-30T02:53:00;12.57;;;7.13;;
25567;SDS011;13455;51.480;7.594;2022-07-30T02:55:28;12.10;;;7.63;;
25567;SDS011;13455;51.480;7.594;2022-07-30T02:57:55;11.82;;;7.90;;
25567;SDS011;13455;51.480;7.594;2022-07-30T03:00:22;12.85;;;7.90;;
25567;SDS011;13455;51.480;7.594;2022-07-30T03:02:49;13.30;;;8.05;;
25567;SDS011;13455;51.480;7.594;2022-07-30T03:05:16;16.05;;;7.97;;
25567;SDS011;13455;51.480;7.594;2022-07-30T03:07:42;11.93;;;8.05;;
25567;SDS011;13455;51.480;7.594;2022-07-30T03:10:08;11.88;;;8.00;;
25567;SDS011;13455;51.480;7.594;2022-07-30T03:12:37;13.18;;;8.13;;
25567;SDS011;13455;51.480;7.594;2022-07-30T03:15:04;12.73;;;8.35;;
25567;SDS011;13455;51.480;7.594;2022-07-30T03:17:31;13.43;;;7.83;;
25567;SDS011;13455;51.480;7.594;2022-07-30T03:19:59;13.77;;;8.00;;
25567;SDS011;13455;51.480;7.594;2022-07-30T03:22:28;10.95;;;7.10;;
25567;SDS011;13455;51.480;7.594;2022-07-30T03:24:56;12.50;;;7.07;;
25567;SDS011;13455;51.480;7.594;2022-07-30T03:27:23;11.87;;;7.50;;
25567;SDS011;13455;51.480;7.594;2022-07-30T03:29:50;12.35;;;7.53;;
25567;SDS011;13455;51.480;7.594;2022-07-30T03:32:18;12.15;;;7.25;;
25567;SDS011;13455;51.480;7.594;2022-07-30T03:34:44;11.73;;;7.30;;
25567;SDS011;13455;51.480;7.594;2022-07-30T03:37:10;12.88;;;8.07;;
25567;SDS011;13455;51.480;7.594;2022-07-30T03:39:37;13.98;;;8.18;;
25567;SDS011;13455;51.480;7.594;2022-07-30T03:42:05;13.45;;;8.27;;
25567;SDS011;13455;51.480;7.594;2022-07-30T03:44:32;14.85;;;8.20;;
25567;SDS011;13455;51.480;7.594;2022-07-30T03:46:58;12.82;;;8.13;;
25567;SDS011;13455;51.480;7.594;2022-07-30T03:49:25;11.55;;;8.88;;
25567;SDS011;13455;51.480;7.594;2022-07-30T03:51:51;11.17;;;8.03;;
25567;SDS011;13455;51.480;7.594;2022-07-30T03:54:18;13.02;;;8.60;;
25567;SDS011;13455;51.480;7.594;2022-07-30T03:56:44;15.07;;;8.98;;
25567;SDS011;13455;51.480;7.594;2022-07-30T03:59:12;18.27;;;9.47;;
25567;SDS011;13455;51.480;7.594;2022-07-30T04:01:38;15.73;;;8.98;;
25567;SDS011;13455;51.480;7.594;2022-07-30T04:04:08;12.80;;;8.52;;
25567;SDS011;13455;51.480;7.594;2022-07-30T04:06:34;13.85;;;8.52;;
25567;SDS011;13455;51.480;7.594;2022-07-30T04:09:07;12.80;;;8.80;;
25567;SDS011;13455;51.480;7.594;2022-07-30T04:11:33;15.93;;;8.55;;
25567;SDS011;13455;51.480;7.594;2022-07-30T04:13:59;13.47;;;8.50;;
25567;SDS011;13455;51.480;7.594;2022-07-30T04:19:07;14.52;;;8.48;;
25567;SDS011;13455;51.480;7.594;2022-07-30T04:21:36;14.10;;;8.85;;
25567;SDS011;13455;51.480;7.594;2022-07-30T04:24:03;13.83;;;9.03;;
25567;SDS011;13455;51.480;7.594;2022-07-30T04:26:38;12.65;;;8.82;;
25567;SDS011;13455;51.480;7.594;2022-07-30T04:29:05;15.00;;;8.52;;
25567;SDS011;13455;51.480;7.594;2022-07-30T04:31:32;12.40;;;8.37;;
25567;SDS011;13455;51.480;7.594;2022-07-30T04:34:01;16.15;;;8.63;;
25567;SDS011;13455;51.480;7.594;2022-07-30T04:36:28;12.68;;;8.68;;
25567;SDS011;13455;51.480;7.594;2022-07-30T04:38:54;12.50;;;8.65;;
25567;SDS011;13455;51.480;7.594;2022-07-30T04:41:20;13.80;;;8.68;;
25567;SDS011;13455;51.480;7.594;2022-07-30T04:43:47;14.55;;;8.85;;
25567;SDS011;13455;51.480;7.594;2022-07-30T04:46:13;16.00;;;9.25;;
25567;SDS011;13455;51.480;7.594;2022-07-30T04:48:39;15.40;;;9.70;;
25567;SDS011;13455;51.480;7.594;2022-07-30T04:51:08;14.57;;;9.77;;
25567;SDS011;13455;51.480;7.594;2022-07-30T04:53:34;14.80;;;9.88;;
25567;SDS011;13455;51.480;7.594;2022-07-30T04:56:00;13.43;;;9.93;;
25567;SDS011;13455;51.480;7.594;2022-07-30T04:58:27;13.63;;;10.20;;
25567;SDS011;13455;51.480;7.594;2022-07-30T05:00:54;15.13;;;10.27;;
25567;SDS011;13455;51.480;7.594;2022-07-30T05:03:20;16.42;;;10.27;;
25567;SDS011;13455;51.480;7.594;2022-07-30T05:05:48;14.30;;;10.55;;
25567;SDS011;13455;51.480;7.594;2022-07-30T05:08:14;15.18;;;10.05;;
25567;SDS011;13455;51.480;7.594;2022-07-30T05:10:41;12.95;;;8.95;;
25567;SDS011;13455;51.480;7.594;2022-07-30T05:13:11;13.82;;;9.52;;
25567;SDS011;13455;51.480;7.594;2022-07-30T05:15:38;13.55;;;9.48;;
25567;SDS011;13455;51.480;7.594;2022-07-30T05:18:04;14.88;;;9.65;;
25567;SDS011;13455;51.480;7.594;2022-07-30T05:20:30;14.98;;;9.75;;
25567;SDS011;13455;51.480;7.594;2022-07-30T05:22:56;17.27;;;10.73;;
25567;SDS011;13455;51.480;7.594;2022-07-30T05:25:22;16.50;;;10.60;;
25567;SDS011;13455;51.480;7.594;2022-07-30T05:27:48;15.70;;;10.82;;
25567;SDS011;13455;51.480;7.594;2022-07-30T05:30:15;17.33;;;10.95;;
25567;SDS011;13455;51.480;7.594;2022-07-30T05:32:44;18.80;;;10.98;;
25567;SDS011;13455;51.480;7.594;2022-07-30T05:35:13;15.38;;;10.93;;
25567;SDS011;13455;51.480;7.594;2022-07-30T05:37:39;19.20;;;11.70;;
25567;SDS011;13455;51.480;7.594;2022-07-30T05:40:05;17.52;;;11.77;;
25567;SDS011;13455;51.480;7.594;2022-07-30T05:42:31;16.00;;;11.90;;
25567;SDS011;13455;51.480;7.594;2022-07-30T05:44:57;16.77;;;11.97;;
25567;SDS011;13455;51.480;7.594;2022-07-30T05:47:24;16.70;;;11.40;;
25567;SDS011;13455;51.480;7.594;2022-07-30T05:49:50;17.73;;;12.10;;
25567;SDS011;13455;51.480;7.594;2022-07-30T05:52:16;17.10;;;11.60;;
25567;SDS011;13455;51.480;7.594;2022-07-30T05:54:42;17.63;;;11.80;;
25567;SDS011;13455;51.480;7.594;2022-07-30T05:57:09;15.85;;;11.60;;
25567;SDS011;13455;51.480;7.594;2022-07-30T05:59:35;17.67;;;10.77;;
25567;SDS011;13455;51.480;7.594;2022-07-30T06:02:01;14.30;;;11.13;;
25567;SDS011;13455;51.480;7.594;2022-07-30T06:04:28;15.23;;;10.48;;
25567;SDS011;13455;51.480;7.594;2022-07-30T06:06:54;19.27;;;10.90;;
25567;SDS011;13455;51.480;7.594;2022-07-30T06:09:20;18.63;;;11.67;;
25567;SDS011;13455;51.480;7.594;2022-07-30T06:11:46;16.55;;;11.82;;
25567;SDS011;13455;51.480;7.594;2022-07-30T06:14:12;19.55;;;11.43;;
25567;SDS011;13455;51.480;7.594;2022-07-30T06:16:38;18.02;;;11.90;;
25567;SDS011;13455;51.480;7.594;2022-07-30T06:19:04;17.33;;;11.82;;
25567;SDS011;13455;51.480;7.594;2022-07-30T06:21:30;20.77;;;11.45;;
25567;SDS011;13455;51.480;7.594;2022-07-30T06:23:56;17.83;;;11.38;;
25567;SDS011;13455;51.480;7.594;2022-07-30T06:26:22;16.63;;;9.97;;
25567;SDS011;13455;51.480;7.594;2022-07-30T06:28:48;16.97;;;10.70;;
25567;SDS011;13455;51.480;7.594;2022-07-30T06:31:14;14.97;;;10.63;;
25567;SDS011;13455;51.480;7.594;2022-07-30T06:33:40;16.95;;;10.77;;
25567;SDS011;13455;51.480;7.594;2022-07-30T06:36:07;15.57;;;10.80;;
25567;SDS011;13455;51.480;7.594;2022-07-30T06:38:33;16.05;;;11.32;;
25567;SDS011;13455;51.480;7.594;2022-07-30T06:40:59;18.17;;;11.88;;
25567;SDS011;13455;51.480;7.594;2022-07-30T06:43:25;20.20;;;11.63;;
25567;SDS011;13455;51.480;7.594;2022-07-30T06:45:52;14.68;;;11.10;;
25567;SDS011;13455;51.480;7.594;2022-07-30T06:48:18;18.13;;;12.15;;
25567;SDS011;13455;51.480;7.594;2022-07-30T06:50:44;15.65;;;11.55;;
25567;SDS011;13455;51.480;7.594;2022-07-30T06:53:10;18.85;;;11.93;;
25567;SDS011;13455;51.480;7.594;2022-07-30T06:55:37;17.93;;;11.63;;
25567;SDS011;13455;51.480;7.594;2022-07-30T06:58:03;18.35;;;12.02;;
25567;SDS011;13455;51.480;7.594;2022-07-30T07:00:29;16.60;;;11.50;;
25567;SDS011;13455;51.480;7.594;2022-07-30T07:02:55;15.75;;;11.20;;
25567;SDS011;13455;51.480;7.594;2022-07-30T07:05:21;16.58;;;11.10;;
25567;SDS011;13455;51.480;7.594;2022-07-30T07:07:47;15.00;;;10.68;;
25567;SDS011;13455;51.480;7.594;2022-07-30T07:10:13;17.47;;;10.57;;
25567;SDS011;13455;51.480;7.594;2022-07-30T07:12:39;17.40;;;11.30;;
25567;SDS011;13455;51.480;7.594;2022-07-30T07:15:05;18.67;;;11.45;;
25567;SDS011;13455;51.480;7.594;2022-07-30T07:17:31;18.52;;;11.15;;
25567;SDS011;13455;51.480;7.594;2022-07-30T07:19:57;18.37;;;11.03;;
25567;SDS011;13455;51.480;7.594;2022-07-30T07:22:24;19.40;;;11.80;;
25567;SDS011;13455;51.480;7.594;2022-07-30T07:24:50;20.48;;;11.80;;
25567;SDS011;13455;51.480;7.594;2022-07-30T07:27:16;19.50;;;11.57;;
25567;SDS011;13455;51.480;7.594;2022-07-30T07:29:42;17.85;;;11.13;;
25567;SDS011;13455;51.480;7.594;2022-07-30T07:32:08;17.53;;;11.50;;
25567;SDS011;13455;51.480;7.594;2022-07-30T07:34:34;19.53;;;12.27;;
25567;SDS011;13455;51.480;7.594;2022-07-30T07:37:00;18.47;;;12.17;;
25567;SDS011;13455;51.480;7.594;2022-07-30T07:39:25;20.70;;;12.38;;
25567;SDS011;13455;51.480;7.594;2022-07-30T07:41:51;22.53;;;12.77;;
25567;SDS011;13455;51.480;7.594;2022-07-30T07:44:17;22.75;;;13.57;;
25567;SDS011;13455;51.480;7.594;2022-07-30T07:46:42;21.25;;;13.43;;
25567;SDS011;13455;51.480;7.594;2022-07-30T07:49:08;25.05;;;14.70;;
25567;SDS011;13455;51.480;7.594;2022-07-30T07:51:34;23.80;;;14.30;;
25567;SDS011;13455;51.480;7.594;2022-07-30T07:54:01;27.80;;;16.05;;
25567;SDS011;13455;51.480;7.594;2022-07-30T07:56:27;28.50;;;17.40;;
25567;SDS011;13455;51.480;7.594;2022-07-30T07:58:53;32.30;;;19.67;;
25567;SDS011;13455;51.480;7.594;2022-07-30T08:01:19;32.17;;;20.08;;
25567;SDS011;13455;51.480;7.594;2022-07-30T08:03:46;32.95;;;21.20;;
25567;SDS011;13455;51.480;7.594;2022-07-30T08:06:12;36.35;;;22.00;;
25567;SDS011;13455;51.480;7.594;2022-07-30T08:08:38;36.58;;;23.45;;
25567;SDS011;13455;51.480;7.594;2022-07-30T08:11:04;38.80;;;25.23;;
25567;SDS011;13455;51.480;7.594;2022-07-30T08:13:31;38.17;;;24.85;;
25567;SDS011;13455;51.480;7.594;2022-07-30T08:15:58;36.83;;;25.17;;
25567;SDS011;13455;51.480;7.594;2022-07-30T08:18:24;39.42;;;25.40;;
25567;SDS011;13455;51.480;7.594;2022-07-30T08:20:50;39.70;;;25.33;;
25567;SDS011;13455;51.480;7.594;2022-07-30T08:23:16;40.13;;;25.15;;
25567;SDS011;13455;51.480;7.594;2022-07-30T08:25:43;36.22;;;25.90;;
25567;SDS011;13455;51.480;7.594;2022-07-30T08:28:09;36.28;;;24.38;;
25567;SDS011;13455;51.480;7.594;2022-07-30T08:30:35;37.97;;;27.08;;
25567;SDS011;13455;51.480;7.594;2022-07-30T08:33:01;41.30;;;28.27;;
25567;SDS011;13455;51.480;7.594;2022-07-30T08:35:27;41.50;;;28.47;;
25567;SDS011;13455;51.480;7.594;2022-07-30T08:37:53;42.38;;;29.10;;
25567;SDS011;13455;51.480;7.594;2022-07-30T08:40:19;43.75;;;30.88;;
25567;SDS011;13455;51.480;7.594;2022-07-30T08:42:45;44.80;;;30.80;;
25567;SDS011;13455;51.480;7.594;2022-07-30T08:45:11;45.97;;;32.40;;
25567;SDS011;13455;51.480;7.594;2022-07-30T08:47:39;41.63;;;31.35;;
25567;SDS011;13455;51.480;7.594;2022-07-30T08:50:08;39.57;;;30.63;;
25567;SDS011;13455;51.480;7.594;2022-07-30T08:52:35;38.63;;;29.55;;
25567;SDS011;13455;51.480;7.594;2022-07-30T08:55:03;39.05;;;28.55;;
25567;SDS011;13455;51.480;7.594;2022-07-30T08:57:30;36.85;;;27.95;;
25567;SDS011;13455;51.480;7.594;2022-07-30T08:59:57;38.33;;;28.20;;
25567;SDS011;13455;51.480;7.594;2022-07-30T09:02:23;37.78;;;27.65;;
25567;SDS011;13455;51.480;7.594;2022-07-30T09:04:49;34.88;;;26.67;;
25567;SDS011;13455;51.480;7.594;2022-07-30T09:07:16;33.38;;;24.40;;
25567;SDS011;13455;51.480;7.594;2022-07-30T09:09:42;34.80;;;23.70;;
25567;SDS011;13455;51.480;7.594;2022-07-30T09:17:27;25.75;;;19.50;;
25567;SDS011;13455;51.480;7.594;2022-07-30T09:20:03;26.77;;;19.23;;
25567;SDS011;13455;51.480;7.594;2022-07-30T09:22:42;25.98;;;20.48;;
25567;SDS011;13455;51.480;7.594;2022-07-30T09:25:08;27.42;;;20.15;;
25567;SDS011;13455;51.480;7.594;2022-07-30T09:27:45;24.80;;;19.42;;
25567;SDS011;13455;51.480;7.594;2022-07-30T09:30:12;22.17;;;16.25;;
25567;SDS011;13455;51.480;7.594;2022-07-30T09:32:51;22.42;;;16.58;;
25567;SDS011;13455;51.480;7.594;2022-07-30T09:35:18;23.00;;;16.75;;
25567;SDS011;13455;51.480;7.594;2022-07-30T09:37:45;21.88;;;15.55;;
25567;SDS011;13455;51.480;7.594;2022-07-30T09:40:15;22.13;;;16.40;;
25567;SDS011;13455;51.480;7.594;2022-07-30T09:42:42;20.80;;;15.87;;
25567;SDS011;13455;51.480;7.594;2022-07-30T09:47:42;18.17;;;13.57;;
25567;SDS011;13455;51.480;7.594;2022-07-30T09:52:36;27.67;;;16.15;;
25567;SDS011;13455;51.480;7.594;2022-07-30T09:55:02;24.33;;;17.15;;
25567;SDS011;13455;51.480;7.594;2022-07-30T09:57:29;25.65;;;17.58;;
25567;SDS011;13455;51.480;7.594;2022-07-30T09:59:55;25.58;;;17.95;;
25567;SDS011;13455;51.480;7.594;2022-07-30T10:02:31;25.45;;;16.80;;
25567;SDS011;13455;51.480;7.594;2022-07-30T10:05:07;22.35;;;17.05;;
25567;SDS011;13455;51.480;7.594;2022-07-30T10:07:34;27.55;;;17.15;;
25567;SDS011;13455;51.480;7.594;2022-07-30T10:10:00;21.70;;;14.60;;
25567;SDS011;13455;51.480;7.594;2022-07-30T10:12:30;18.75;;;13.57;;
25567;SDS011;13455;51.480;7.594;2022-07-30T10:14:57;17.53;;;13.27;;
25567;SDS011;13455;51.480;7.594;2022-07-30T10:17:25;17.58;;;12.95;;
25567;SDS011;13455;51.480;7.594;2022-07-30T10:19:52;19.80;;;13.13;;
25567;SDS011;13455;51.480;7.594;2022-07-30T10:22:18;18.52;;;12.35;;
25567;SDS011;13455;51.480;7.594;2022-07-30T10:24:44;19.75;;;12.90;;
25567;SDS011;13455;51.480;7.594;2022-07-30T10:27:11;22.05;;;13.65;;
25567;SDS011;13455;51.480;7.594;2022-07-30T10:29:37;16.95;;;12.45;;
25567;SDS011;13455;51.480;7.594;2022-07-30T10:32:04;15.80;;;11.50;;
25567;SDS011;13455;51.480;7.594;2022-07-30T10:34:31;19.20;;;11.77;;
25567;SDS011;13455;51.480;7.594;2022-07-30T10:36:59;18.63;;;12.82;;
25567;SDS011;13455;51.480;7.594;2022-07-30T10:39:27;18.67;;;12.70;;
25567;SDS011;13455;51.480;7.594;2022-07-30T10:47:09;16.33;;;10.13;;
25567;SDS011;13455;51.480;7.594;2022-07-30T10:49:38;15.53;;;10.20;;
25567;SDS011;13455;51.480;7.594;2022-07-30T10:52:04;16.00;;;9.95;;
25567;SDS011;13455;51.480;7.594;2022-07-30T11:02:16;15.50;;;8.97;;
25567;SDS011;13455;51.480;7.594;2022-07-30T11:04:44;17.58;;;9.75;;
25567;SDS011;13455;51.480;7.594;2022-07-30T11:09:45;15.00;;;8.90;;
25567;SDS011;13455;51.480;7.594;2022-07-30T11:12:11;13.32;;;8.48;;
25567;SDS011;13455;51.480;7.594;2022-07-30T11:17:16;17.25;;;9.45;;
25567;SDS011;13455;51.480;7.594;2022-07-30T11:22:39;14.63;;;7.90;;
25567;SDS011;13455;51.480;7.594;2022-07-30T11:25:53;13.52;;;8.57;;
25567;SDS011;13455;51.480;7.594;2022-07-30T11:27:55;16.90;;;9.93;;
25567;SDS011;13455;51.480;7.594;2022-07-30T11:32:57;16.90;;;10.17;;
25567;SDS011;13455;51.480;7.594;2022-07-30T11:35:43;16.48;;;11.18;;
25567;SDS011;13455;51.480;7.594;2022-07-30T11:38:13;17.07;;;12.20;;
25567;SDS011;13455;51.480;7.594;2022-07-30T11:45:40;18.70;;;13.43;;
25567;SDS011;13455;51.480;7.594;2022-07-30T11:48:10;18.48;;;11.63;;
25567;SDS011;13455;51.480;7.594;2022-07-30T11:50:38;14.97;;;10.83;;
25567;SDS011;13455;51.480;7.594;2022-07-30T11:53:07;17.53;;;11.40;;
25567;SDS011;13455;51.480;7.594;2022-07-30T11:55:38;17.88;;;10.75;;
25567;SDS011;13455;51.480;7.594;2022-07-30T11:58:18;15.88;;;9.95;;
25567;SDS011;13455;51.480;7.594;2022-07-30T12:00:53;14.55;;;9.55;;
25567;SDS011;13455;51.480;7.594;2022-07-30T12:03:20;14.45;;;8.50;;
25567;SDS011;13455;51.480;7.594;2022-07-30T12:05:47;12.50;;;8.73;;
25567;SDS011;13455;51.480;7.594;2022-07-30T12:08:14;11.88;;;7.55;;
25567;SDS011;13455;51.480;7.594;2022-07-30T12:10:40;10.50;;;6.95;;
25567;SDS011;13455;51.480;7.594;2022-07-30T12:13:10;12.02;;;6.00;;
25567;SDS011;13455;51.480;7.594;2022-07-30T12:15:38;8.80;;;5.05;;
25567;SDS011;13455;51.480;7.594;2022-07-30T12:18:05;7.63;;;4.60;;
25567;SDS011;13455;51.480;7.594;2022-07-30T12:20:32;7.97;;;4.97;;
25567;SDS011;13455;51.480;7.594;2022-07-30T12:22:58;7.72;;;4.70;;
25567;SDS011;13455;51.480;7.594;2022-07-30T12:25:24;7.30;;;4.43;;
25567;SDS011;13455;51.480;7.594;2022-07-30T12:27:50;8.37;;;4.40;;
25567;SDS011;13455;51.480;7.594;2022-07-30T12:30:17;7.43;;;4.53;;
25567;SDS011;13455;51.480;7.594;2022-07-30T12:32:43;6.05;;;4.30;;
25567;SDS011;13455;51.480;7.594;2022-07-30T12:35:10;6.40;;;4.43;;
25567;SDS011;13455;51.480;7.594;2022-07-30T12:37:36;8.35;;;4.53;;
25567;SDS011;13455;51.480;7.594;2022-07-30T12:40:03;9.15;;;5.70;;
25567;SDS011;13455;51.480;7.594;2022-07-30T12:42:29;6.87;;;5.60;;
25567;SDS011;13455;51.480;7.594;2022-07-30T12:44:55;7.80;;;5.20;;
25567;SDS011;13455;51.480;7.594;2022-07-30T12:49:48;6.45;;;4.93;;
25567;SDS011;13455;51.480;7.594;2022-07-30T12:55:07;7.93;;;4.40;;
25567;SDS011;13455;51.480;7.594;2022-07-30T12:57:52;5.85;;;3.90;;
25567;SDS011;13455;51.480;7.594;2022-07-30T13:00:19;6.43;;;3.67;;
25567;SDS011;13455;51.480;7.594;2022-07-30T13:02:45;6.07;;;3.40;;
25567;SDS011;13455;51.480;7.594;2022-07-30T13:05:11;4.80;;;2.95;;
25567;SDS011;13455;51.480;7.594;2022-07-30T13:10:19;6.00;;;3.40;;
25567;SDS011;13455;51.480;7.594;2022-07-30T13:12:45;8.05;;;3.63;;
25567;SDS011;13455;51.480;7.594;2022-07-30T13:15:18;7.73;;;3.23;;
25567;SDS011;13455;51.480;7.594;2022-07-30T13:17:45;5.95;;;3.00;;
25567;SDS011;13455;51.480;7.594;2022-07-30T13:20:12;7.25;;;2.63;;
25567;SDS011;13455;51.480;7.594;2022-07-30T13:22:38;4.00;;;2.30;;
25567;SDS011;13455;51.480;7.594;2022-07-30T13:25:04;6.45;;;2.60;;
25567;SDS011;13455;51.480;7.594;2022-07-30T13:27:30;6.00;;;2.70;;
25567;SDS011;13455;51.480;7.594;2022-07-30T13:29:56;5.07;;;2.70;;
25567;SDS011;13455;51.480;7.594;2022-07-30T13:32:22;8.55;;;2.72;;
25567;SDS011;13455;51.480;7.594;2022-07-30T13:34:48;5.22;;;2.22;;
25567;SDS011;13455;51.480;7.594;2022-07-30T13:37:14;6.18;;;2.13;;
25567;SDS011;13455;51.480;7.594;2022-07-30T13:39:40;4.78;;;1.90;;
25567;SDS011;13455;51.480;7.594;2022-07-30T13:42:06;3.80;;;2.00;;
25567;SDS011;13455;51.480;7.594;2022-07-30T13:44:31;6.00;;;2.00;;
25567;SDS011;13455;51.480;7.594;2022-07-30T13:46:57;4.05;;;1.92;;
25567;SDS011;13455;51.480;7.594;2022-07-30T13:49:23;3.78;;;1.98;;
25567;SDS011;13455;51.480;7.594;2022-07-30T13:51:49;7.40;;;2.35;;
25567;SDS011;13455;51.480;7.594;2022-07-30T13:54:15;6.73;;;2.17;;
25567;SDS011;13455;51.480;7.594;2022-07-30T13:56:41;5.18;;;2.40;;
25567;SDS011;13455;51.480;7.594;2022-07-30T13:59:08;8.23;;;2.30;;
25567;SDS011;13455;51.480;7.594;2022-07-30T14:01:33;10.23;;;2.40;;
25567;SDS011;13455;51.480;7.594;2022-07-30T14:03:59;6.85;;;2.30;;
25567;SDS011;13455;51.480;7.594;2022-07-30T14:06:26;5.45;;;2.40;;
25567;SDS011;13455;51.480;7.594;2022-07-30T14:08:52;6.50;;;2.40;;
25567;SDS011;13455;51.480;7.594;2022-07-30T14:11:17;7.33;;;2.10;;
25567;SDS011;13455;51.480;7.594;2022-07-30T14:13:43;7.17;;;2.10;;
25567;SDS011;13455;51.480;7.594;2022-07-30T14:16:09;6.03;;;2.13;;
25567;SDS011;13455;51.480;7.594;2022-07-30T14:18:35;5.03;;;2.17;;
25567;SDS011;13455;51.480;7.594;2022-07-30T14:21:01;7.67;;;5.10;;
25567;SDS011;13455;51.480;7.594;2022-07-30T14:23:27;5.90;;;2.40;;
25567;SDS011;13455;51.480;7.594;2022-07-30T14:25:54;9.70;;;2.00;;
25567;SDS011;13455;51.480;7.594;2022-07-30T14:28:20;7.05;;;1.60;;
25567;SDS011;13455;51.480;7.594;2022-07-30T14:30:45;5.13;;;2.07;;
25567;SDS011;13455;51.480;7.594;2022-07-30T14:33:11;5.57;;;2.00;;
25567;SDS011;13455;51.480;7.594;2022-07-30T14:35:37;5.13;;;1.50;;
25567;SDS011;13455;51.480;7.594;2022-07-30T14:38:03;6.65;;;2.30;;
25567;SDS011;13455;51.480;7.594;2022-07-30T14:40:29;3.05;;;1.60;;
25567;SDS011;13455;51.480;7.594;2022-07-30T14:42:55;4.35;;;1.40;;
25567;SDS011;13455;51.480;7.594;2022-07-30T14:45:22;3.10;;;1.50;;
25567;SDS011;13455;51.480;7.594;2022-07-30T14:47:47;2.67;;;1.40;;
25567;SDS011;13455;51.480;7.594;2022-07-30T14:50:15;3.83;;;1.67;;
25567;SDS011;13455;51.480;7.594;2022-07-30T14:52:40;4.15;;;2.20;;
25567;SDS011;13455;51.480;7.594;2022-07-30T14:55:06;5.68;;;1.38;;
25567;SDS011;13455;51.480;7.594;2022-07-30T14:57:33;3.90;;;1.30;;
25567;SDS011;13455;51.480;7.594;2022-07-30T14:59:59;3.35;;;1.20;;
25567;SDS011;13455;51.480;7.594;2022-07-30T15:02:26;3.33;;;1.10;;
25567;SDS011;13455;51.480;7.594;2022-07-30T15:04:51;3.00;;;1.20;;
25567;SDS011;13455;51.480;7.594;2022-07-30T15:07:17;6.13;;;1.40;;
25567;SDS011;13455;51.480;7.594;2022-07-30T15:09:43;5.65;;;1.40;;
25567;SDS011;13455;51.480;7.594;2022-07-30T15:12:09;2.78;;;1.40;;
25567;SDS011;13455;51.480;7.594;2022-07-30T15:14:38;2.57;;;1.20;;
25567;SDS011;13455;51.480;7.594;2022-07-30T15:17:05;1.83;;;1.05;;
25567;SDS011;13455;51.480;7.594;2022-07-30T15:19:31;3.45;;;1.20;;
25567;SDS011;13455;51.480;7.594;2022-07-30T15:21:58;3.00;;;1.20;;
25567;SDS011;13455;51.480;7.594;2022-07-30T15:24:25;6.28;;;1.40;;
25567;SDS011;13455;51.480;7.594;2022-07-30T15:26:51;4.65;;;1.60;;